sensor_id;sensor_type;location;lat;lon;timestamp;temperature;humidity
31113;DHT22;17763;48.730;9.136;2023-02-28T00:00:12;-0.40;74.50
31113;DHT22;17763;48.730;9.136;2023-02-28T00:02:45;-0.50;74.80
31113;DHT22;17763;48.730;9.136;2023-02-28T00:05:16;-0.50;75.20
31113;DHT22;17763;48.730;9.136;2023-02-28T00:07:42;-0.60;75.60
31113;DHT22;17763;48.730;9.136;2023-02-28T00:10:10;-0.60;75.90
31113;DHT22;17763;48.730;9.136;2023-02-28T00:12:39;-0.60;76.00
31113;DHT22;17763;48.730;9.136;2023-02-28T00:15:09;-0.60;76.20
31113;DHT22;17763;48.730;9.136;2023-02-28T00:17:38;-0.70;76.20
31113;DHT22;17763;48.730;9.136;2023-02-28T00:20:08;-0.70;76.40
31113;DHT22;17763;48.730;9.136;2023-02-28T00:22:36;-0.70;76.60
31113;DHT22;17763;48.730;9.136;2023-02-28T00:25:03;-0.80;76.70
31113;DHT22;17763;48.730;9.136;2023-02-28T00:27:29;-0.80;76.80
31113;DHT22;17763;48.730;9.136;2023-02-28T00:29:55;-0.80;77.10
31113;DHT22;17763;48.730;9.136;2023-02-28T00:32:23;-0.90;77.30
31113;DHT22;17763;48.730;9.136;2023-02-28T00:34:48;-0.90;77.60
31113;DHT22;17763;48.730;9.136;2023-02-28T00:37:14;-0.90;77.80
31113;DHT22;17763;48.730;9.136;2023-02-28T00:39:40;-1.00;78.00
31113;DHT22;17763;48.730;9.136;2023-02-28T00:42:06;-1.00;78.20
31113;DHT22;17763;48.730;9.136;2023-02-28T00:44:32;-1.10;78.50
31113;DHT22;17763;48.730;9.136;2023-02-28T00:46:59;-1.10;78.80
31113;DHT22;17763;48.730;9.136;2023-02-28T00:49:28;-1.10;79.10
31113;DHT22;17763;48.730;9.136;2023-02-28T00:51:55;-1.20;79.30
31113;DHT22;17763;48.730;9.136;2023-02-28T00:54:21;-1.20;79.70
31113;DHT22;17763;48.730;9.136;2023-02-28T00:56:47;-1.30;79.90
31113;DHT22;17763;48.730;9.136;2023-02-28T00:59:14;-1.30;80.30
31113;DHT22;17763;48.730;9.136;2023-02-28T01:01:44;-1.30;80.40
31113;DHT22;17763;48.730;9.136;2023-02-28T01:04:10;-1.40;80.50
31113;DHT22;17763;48.730;9.136;2023-02-28T01:06:36;-1.30;81.00
31113;DHT22;17763;48.730;9.136;2023-02-28T01:09:04;-1.40;81.20
31113;DHT22;17763;48.730;9.136;2023-02-28T01:11:30;-1.40;81.40
31113;DHT22;17763;48.730;9.136;2023-02-28T01:13:56;-1.40;81.80
31113;DHT22;17763;48.730;9.136;2023-02-28T01:16:24;-1.40;82.10
31113;DHT22;17763;48.730;9.136;2023-02-28T01:18:50;-1.50;82.40
31113;DHT22;17763;48.730;9.136;2023-02-28T01:21:17;-1.50;82.60
31113;DHT22;17763;48.730;9.136;2023-02-28T01:23:48;-1.50;82.90
31113;DHT22;17763;48.730;9.136;2023-02-28T01:26:20;-1.50;83.30
31113;DHT22;17763;48.730;9.136;2023-02-28T01:28:46;-1.50;83.40
31113;DHT22;17763;48.730;9.136;2023-02-28T01:31:12;-1.50;83.60
31113;DHT22;17763;48.730;9.136;2023-02-28T01:33:38;-1.50;83.80
31113;DHT22;17763;48.730;9.136;2023-02-28T01:36:13;-1.50;84.00
31113;DHT22;17763;48.730;9.136;2023-02-28T01:38:39;-1.50;84.10
31113;DHT22;17763;48.730;9.136;2023-02-28T01:41:06;-1.50;84.20
31113;DHT22;17763;48.730;9.136;2023-02-28T01:44:01;-1.50;84.50
31113;DHT22;17763;48.730;9.136;2023-02-28T01:46:30;-1.50;84.90
31113;DHT22;17763;48.730;9.136;2023-02-28T01:51:45;-1.50;85.50
31113;DHT22;17763;48.730;9.136;2023-02-28T01:54:23;-1.50;85.70
31113;DHT22;17763;48.730;9.136;2023-02-28T01:57:00;-1.50;86.10
31113;DHT22;17763;48.730;9.136;2023-02-28T02:02:03;-1.60;86.70
31113;DHT22;17763;48.730;9.136;2023-02-28T02:04:37;-1.50;87.10
31113;DHT22;17763;48.730;9.136;2023-02-28T02:07:04;-1.60;87.30
31113;DHT22;17763;48.730;9.136;2023-02-28T02:09:30;-1.60;87.60
31113;DHT22;17763;48.730;9.136;2023-02-28T02:11:56;-1.60;87.90
31113;DHT22;17763;48.730;9.136;2023-02-28T02:36:30;-1.60;90.90
31113;DHT22;17763;48.730;9.136;2023-02-28T02:46:42;-1.50;91.70
31113;DHT22;17763;48.730;9.136;2023-02-28T02:49:15;-1.50;91.90
31113;DHT22;17763;48.730;9.136;2023-02-28T02:51:43;-1.50;92.20
31113;DHT22;17763;48.730;9.136;2023-02-28T02:54:28;-1.50;92.40
31113;DHT22;17763;48.730;9.136;2023-02-28T02:56:59;-1.50;92.70
31113;DHT22;17763;48.730;9.136;2023-02-28T02:59:28;-1.50;93.10
31113;DHT22;17763;48.730;9.136;2023-02-28T03:01:57;-1.50;93.40
31113;DHT22;17763;48.730;9.136;2023-02-28T03:04:29;-1.50;93.70
31113;DHT22;17763;48.730;9.136;2023-02-28T03:07:00;-1.50;94.10
31113;DHT22;17763;48.730;9.136;2023-02-28T03:09:28;-1.50;94.30
31113;DHT22;17763;48.730;9.136;2023-02-28T03:11:55;-1.50;94.60
31113;DHT22;17763;48.730;9.136;2023-02-28T03:14:37;-1.50;94.90
31113;DHT22;17763;48.730;9.136;2023-02-28T03:17:27;-1.50;95.20
31113;DHT22;17763;48.730;9.136;2023-02-28T03:25:20;-1.50;96.30
31113;DHT22;17763;48.730;9.136;2023-02-28T03:33:18;-1.50;97.20
31113;DHT22;17763;48.730;9.136;2023-02-28T03:35:58;-1.50;97.40
31113;DHT22;17763;48.730;9.136;2023-02-28T03:38:36;-1.50;97.70
31113;DHT22;17763;48.730;9.136;2023-02-28T03:41:13;-1.50;98.10
31113;DHT22;17763;48.730;9.136;2023-02-28T03:43:43;-1.50;98.40
31113;DHT22;17763;48.730;9.136;2023-02-28T03:46:13;-1.50;98.70
31113;DHT22;17763;48.730;9.136;2023-02-28T03:48:44;-1.50;99.00
31113;DHT22;17763;48.730;9.136;2023-02-28T03:51:17;-1.50;99.30
31113;DHT22;17763;48.730;9.136;2023-02-28T03:53:49;-1.50;99.60
31113;DHT22;17763;48.730;9.136;2023-02-28T03:58:51;-1.50;99.90
31113;DHT22;17763;48.730;9.136;2023-02-28T04:01:43;-1.60;99.90
31113;DHT22;17763;48.730;9.136;2023-02-28T04:04:09;-1.60;99.90
31113;DHT22;17763;48.730;9.136;2023-02-28T04:06:35;-1.60;99.90
31113;DHT22;17763;48.730;9.136;2023-02-28T04:09:04;-1.60;99.90
31113;DHT22;17763;48.730;9.136;2023-02-28T04:11:35;-1.50;99.90
31113;DHT22;17763;48.730;9.136;2023-02-28T04:14:28;-1.50;99.90
31113;DHT22;17763;48.730;9.136;2023-02-28T04:16:54;-1.50;99.90
31113;DHT22;17763;48.730;9.136;2023-02-28T04:19:19;-1.50;99.90
31113;DHT22;17763;48.730;9.136;2023-02-28T04:21:47;-1.40;99.90
31113;DHT22;17763;48.730;9.136;2023-02-28T04:24:16;-1.40;99.90
31113;DHT22;17763;48.730;9.136;2023-02-28T04:26:44;-1.30;99.90
31113;DHT22;17763;48.730;9.136;2023-02-28T04:29:19;-1.40;99.90
31113;DHT22;17763;48.730;9.136;2023-02-28T04:31:45;-1.40;99.90
31113;DHT22;17763;48.730;9.136;2023-02-28T04:34:10;-1.40;99.90
31113;DHT22;17763;48.730;9.136;2023-02-28T04:36:36;-1.40;99.90
31113;DHT22;17763;48.730;9.136;2023-02-28T04:39:02;-1.40;99.90
31113;DHT22;17763;48.730;9.136;2023-02-28T04:41:29;-1.40;99.90
31113;DHT22;17763;48.730;9.136;2023-02-28T04:43:55;-1.40;99.90
31113;DHT22;17763;48.730;9.136;2023-02-28T04:46:22;-1.40;99.90
31113;DHT22;17763;48.730;9.136;2023-02-28T04:48:48;-1.40;99.90
31113;DHT22;17763;48.730;9.136;2023-02-28T04:51:16;-1.40;99.90
31113;DHT22;17763;48.730;9.136;2023-02-28T04:53:43;-1.40;99.90
31113;DHT22;17763;48.730;9.136;2023-02-28T04:56:12;-1.40;99.90
31113;DHT22;17763;48.730;9.136;2023-02-28T04:58:41;-1.40;99.90
31113;DHT22;17763;48.730;9.136;2023-02-28T05:01:28;-1.40;99.90
31113;DHT22;17763;48.730;9.136;2023-02-28T05:03:56;-1.40;99.90
31113;DHT22;17763;48.730;9.136;2023-02-28T05:06:23;-1.40;99.90
31113;DHT22;17763;48.730;9.136;2023-02-28T05:08:50;-1.30;99.90
31113;DHT22;17763;48.730;9.136;2023-02-28T05:11:23;-1.30;99.90
31113;DHT22;17763;48.730;9.136;2023-02-28T05:13:51;-1.30;99.90
31113;DHT22;17763;48.730;9.136;2023-02-28T05:16:20;-1.30;99.90
31113;DHT22;17763;48.730;9.136;2023-02-28T05:18:46;-1.40;99.90
31113;DHT22;17763;48.730;9.136;2023-02-28T05:21:24;-1.50;99.90
31113;DHT22;17763;48.730;9.136;2023-02-28T05:23:54;-1.50;99.90
31113;DHT22;17763;48.730;9.136;2023-02-28T05:26:20;-1.40;99.90
31113;DHT22;17763;48.730;9.136;2023-02-28T05:28:46;-1.50;99.90
31113;DHT22;17763;48.730;9.136;2023-02-28T05:31:12;-1.40;99.90
31113;DHT22;17763;48.730;9.136;2023-02-28T05:33:38;-1.40;99.90
31113;DHT22;17763;48.730;9.136;2023-02-28T05:36:05;-1.40;99.90
31113;DHT22;17763;48.730;9.136;2023-02-28T05:38:31;-1.40;99.90
31113;DHT22;17763;48.730;9.136;2023-02-28T05:40:59;-1.40;99.90
31113;DHT22;17763;48.730;9.136;2023-02-28T05:43:24;-1.40;99.90
31113;DHT22;17763;48.730;9.136;2023-02-28T05:45:50;-1.40;99.90
31113;DHT22;17763;48.730;9.136;2023-02-28T05:48:16;-1.40;99.90
31113;DHT22;17763;48.730;9.136;2023-02-28T05:50:43;-1.50;99.90
31113;DHT22;17763;48.730;9.136;2023-02-28T05:53:13;-1.40;99.90
31113;DHT22;17763;48.730;9.136;2023-02-28T05:55:39;-1.40;99.90
31113;DHT22;17763;48.730;9.136;2023-02-28T05:58:06;-1.30;99.90
31113;DHT22;17763;48.730;9.136;2023-02-28T06:00:32;-1.30;99.90
31113;DHT22;17763;48.730;9.136;2023-02-28T06:02:57;-1.30;99.90
31113;DHT22;17763;48.730;9.136;2023-02-28T06:05:27;-1.30;99.90
31113;DHT22;17763;48.730;9.136;2023-02-28T06:07:53;-1.30;99.90
31113;DHT22;17763;48.730;9.136;2023-02-28T06:10:18;-1.30;99.90
31113;DHT22;17763;48.730;9.136;2023-02-28T06:12:45;-1.20;99.90
31113;DHT22;17763;48.730;9.136;2023-02-28T06:15:14;-1.20;99.90
31113;DHT22;17763;48.730;9.136;2023-02-28T06:17:41;-1.10;99.90
31113;DHT22;17763;48.730;9.136;2023-02-28T06:20:08;-1.20;99.90
31113;DHT22;17763;48.730;9.136;2023-02-28T06:22:38;-1.20;99.90
31113;DHT22;17763;48.730;9.136;2023-02-28T06:25:05;-1.20;99.90
31113;DHT22;17763;48.730;9.136;2023-02-28T06:27:34;-1.10;99.90
31113;DHT22;17763;48.730;9.136;2023-02-28T06:29:59;-1.10;99.90
31113;DHT22;17763;48.730;9.136;2023-02-28T06:32:28;-1.00;99.90
31113;DHT22;17763;48.730;9.136;2023-02-28T06:34:53;-1.10;99.90
31113;DHT22;17763;48.730;9.136;2023-02-28T06:37:19;-1.10;99.90
31113;DHT22;17763;48.730;9.136;2023-02-28T06:39:47;-1.10;99.90
31113;DHT22;17763;48.730;9.136;2023-02-28T06:42:13;-1.00;99.90
31113;DHT22;17763;48.730;9.136;2023-02-28T06:44:39;-1.00;99.90
31113;DHT22;17763;48.730;9.136;2023-02-28T06:47:05;-0.90;99.90
31113;DHT22;17763;48.730;9.136;2023-02-28T06:49:35;-0.80;99.90
31113;DHT22;17763;48.730;9.136;2023-02-28T06:52:01;-0.70;99.90
31113;DHT22;17763;48.730;9.136;2023-02-28T06:54:29;-0.70;99.90
31113;DHT22;17763;48.730;9.136;2023-02-28T06:56:54;-0.70;99.90
31113;DHT22;17763;48.730;9.136;2023-02-28T06:59:21;-0.60;99.90
31113;DHT22;17763;48.730;9.136;2023-02-28T07:01:49;-0.60;99.90
31113;DHT22;17763;48.730;9.136;2023-02-28T07:04:14;-0.60;99.90
31113;DHT22;17763;48.730;9.136;2023-02-28T07:06:40;-0.60;99.90
31113;DHT22;17763;48.730;9.136;2023-02-28T07:09:05;-0.50;99.90
31113;DHT22;17763;48.730;9.136;2023-02-28T07:11:31;-0.50;99.90
31113;DHT22;17763;48.730;9.136;2023-02-28T07:13:57;-0.40;99.90
31113;DHT22;17763;48.730;9.136;2023-02-28T07:16:24;-0.40;99.90
31113;DHT22;17763;48.730;9.136;2023-02-28T07:18:52;-0.40;99.90
31113;DHT22;17763;48.730;9.136;2023-02-28T07:21:19;-0.30;99.90
31113;DHT22;17763;48.730;9.136;2023-02-28T07:23:44;-0.30;99.90
31113;DHT22;17763;48.730;9.136;2023-02-28T07:26:15;-0.40;99.90
31113;DHT22;17763;48.730;9.136;2023-02-28T07:28:43;-0.30;99.90
31113;DHT22;17763;48.730;9.136;2023-02-28T07:31:09;-0.40;99.90
31113;DHT22;17763;48.730;9.136;2023-02-28T07:33:36;-0.30;99.90
31113;DHT22;17763;48.730;9.136;2023-02-28T07:36:23;-0.30;99.90
31113;DHT22;17763;48.730;9.136;2023-02-28T07:38:48;-0.30;99.90
31113;DHT22;17763;48.730;9.136;2023-02-28T07:41:19;-0.30;99.90
31113;DHT22;17763;48.730;9.136;2023-02-28T07:43:45;-0.30;99.90
31113;DHT22;17763;48.730;9.136;2023-02-28T07:46:13;-0.20;99.90
31113;DHT22;17763;48.730;9.136;2023-02-28T07:48:43;-0.20;99.90
31113;DHT22;17763;48.730;9.136;2023-02-28T07:51:09;-0.20;99.90
31113;DHT22;17763;48.730;9.136;2023-02-28T07:53:35;-0.20;99.90
31113;DHT22;17763;48.730;9.136;2023-02-28T07:56:02;-0.10;99.90
31113;DHT22;17763;48.730;9.136;2023-02-28T07:58:29;-0.10;99.90
31113;DHT22;17763;48.730;9.136;2023-02-28T08:00:55;-0.20;99.90
31113;DHT22;17763;48.730;9.136;2023-02-28T08:03:22;-0.20;99.90
31113;DHT22;17763;48.730;9.136;2023-02-28T08:05:48;-0.10;99.90
31113;DHT22;17763;48.730;9.136;2023-02-28T08:08:15;-0.10;99.90
31113;DHT22;17763;48.730;9.136;2023-02-28T08:10:41;-0.10;99.90
31113;DHT22;17763;48.730;9.136;2023-02-28T08:13:07;-0.10;99.90
31113;DHT22;17763;48.730;9.136;2023-02-28T08:15:32;-0.10;99.90
31113;DHT22;17763;48.730;9.136;2023-02-28T08:17:58;-0.10;99.90
31113;DHT22;17763;48.730;9.136;2023-02-28T08:20:25;-0.20;99.90
31113;DHT22;17763;48.730;9.136;2023-02-28T08:22:51;-0.10;99.90
31113;DHT22;17763;48.730;9.136;2023-02-28T08:25:17;-0.10;99.90
31113;DHT22;17763;48.730;9.136;2023-02-28T08:27:45;-0.10;99.90
31113;DHT22;17763;48.730;9.136;2023-02-28T08:30:12;-0.10;99.90
31113;DHT22;17763;48.730;9.136;2023-02-28T08:32:38;0.00;99.90
31113;DHT22;17763;48.730;9.136;2023-02-28T08:35:04;0.00;99.80
31113;DHT22;17763;48.730;9.136;2023-02-28T08:37:30;0.00;99.80
31113;DHT22;17763;48.730;9.136;2023-02-28T08:39:56;0.00;99.90
31113;DHT22;17763;48.730;9.136;2023-02-28T08:42:22;0.10;99.90
31113;DHT22;17763;48.730;9.136;2023-02-28T08:44:48;0.10;99.80
31113;DHT22;17763;48.730;9.136;2023-02-28T08:47:14;0.10;99.30
31113;DHT22;17763;48.730;9.136;2023-02-28T08:49:40;0.10;99.40
31113;DHT22;17763;48.730;9.136;2023-02-28T08:52:05;0.10;99.50
31113;DHT22;17763;48.730;9.136;2023-02-28T08:54:31;0.10;99.60
31113;DHT22;17763;48.730;9.136;2023-02-28T08:56:58;0.30;99.60
31113;DHT22;17763;48.730;9.136;2023-02-28T08:59:26;0.20;99.40
31113;DHT22;17763;48.730;9.136;2023-02-28T09:01:52;0.20;99.30
31113;DHT22;17763;48.730;9.136;2023-02-28T09:04:18;0.20;99.30
31113;DHT22;17763;48.730;9.136;2023-02-28T09:06:43;0.20;99.40
31113;DHT22;17763;48.730;9.136;2023-02-28T09:09:10;0.30;99.30
31113;DHT22;17763;48.730;9.136;2023-02-28T09:11:36;0.30;99.10
31113;DHT22;17763;48.730;9.136;2023-02-28T09:14:02;0.30;98.80
31113;DHT22;17763;48.730;9.136;2023-02-28T09:16:29;0.30;98.90
31113;DHT22;17763;48.730;9.136;2023-02-28T09:18:56;0.30;99.00
31113;DHT22;17763;48.730;9.136;2023-02-28T09:21:22;0.30;99.00
31113;DHT22;17763;48.730;9.136;2023-02-28T09:23:49;0.40;99.00
31113;DHT22;17763;48.730;9.136;2023-02-28T09:26:24;0.50;98.90
31113;DHT22;17763;48.730;9.136;2023-02-28T09:28:51;0.50;98.90
31113;DHT22;17763;48.730;9.136;2023-02-28T09:31:22;0.60;98.90
31113;DHT22;17763;48.730;9.136;2023-02-28T09:33:49;0.70;98.70
31113;DHT22;17763;48.730;9.136;2023-02-28T09:36:15;0.70;98.40
31113;DHT22;17763;48.730;9.136;2023-02-28T09:38:41;0.70;98.10
31113;DHT22;17763;48.730;9.136;2023-02-28T09:41:16;0.70;97.90
31113;DHT22;17763;48.730;9.136;2023-02-28T09:43:49;0.70;97.80
31113;DHT22;17763;48.730;9.136;2023-02-28T09:46:44;0.60;97.70
31113;DHT22;17763;48.730;9.136;2023-02-28T09:49:15;0.60;97.70
31113;DHT22;17763;48.730;9.136;2023-02-28T09:52:09;0.70;97.60
31113;DHT22;17763;48.730;9.136;2023-02-28T09:54:36;0.70;97.60
31113;DHT22;17763;48.730;9.136;2023-02-28T09:57:24;0.70;97.40
31113;DHT22;17763;48.730;9.136;2023-02-28T10:05:13;0.90;97.40
31113;DHT22;17763;48.730;9.136;2023-02-28T10:16:18;1.10;97.00
31113;DHT22;17763;48.730;9.136;2023-02-28T10:18:50;1.10;96.70
31113;DHT22;17763;48.730;9.136;2023-02-28T10:24:23;1.20;96.60
31113;DHT22;17763;48.730;9.136;2023-02-28T10:26:58;1.30;96.30
31113;DHT22;17763;48.730;9.136;2023-02-28T10:29:25;1.30;96.30
31113;DHT22;17763;48.730;9.136;2023-02-28T10:31:51;1.30;96.30
31113;DHT22;17763;48.730;9.136;2023-02-28T10:34:17;1.40;96.20
31113;DHT22;17763;48.730;9.136;2023-02-28T10:36:43;1.40;95.90
31113;DHT22;17763;48.730;9.136;2023-02-28T10:39:39;1.40;95.80
31113;DHT22;17763;48.730;9.136;2023-02-28T10:42:27;1.40;95.60
31113;DHT22;17763;48.730;9.136;2023-02-28T10:50:42;1.30;95.30
31113;DHT22;17763;48.730;9.136;2023-02-28T11:04:01;1.60;95.10
31113;DHT22;17763;48.730;9.136;2023-02-28T11:06:33;1.70;95.00
31113;DHT22;17763;48.730;9.136;2023-02-28T11:09:03;1.70;94.60
31113;DHT22;17763;48.730;9.136;2023-02-28T11:11:31;1.70;94.40
31113;DHT22;17763;48.730;9.136;2023-02-28T11:14:30;1.70;94.50
31113;DHT22;17763;48.730;9.136;2023-02-28T11:17:02;1.80;94.40
31113;DHT22;17763;48.730;9.136;2023-02-28T11:19:44;1.90;94.30
31113;DHT22;17763;48.730;9.136;2023-02-28T11:22:11;2.00;94.10
31113;DHT22;17763;48.730;9.136;2023-02-28T11:24:46;2.00;93.90
31113;DHT22;17763;48.730;9.136;2023-02-28T11:27:50;2.00;93.80
31113;DHT22;17763;48.730;9.136;2023-02-28T11:30:40;2.10;92.70
31113;DHT22;17763;48.730;9.136;2023-02-28T11:33:28;1.90;92.00
31113;DHT22;17763;48.730;9.136;2023-02-28T11:36:03;1.80;92.80
31113;DHT22;17763;48.730;9.136;2023-02-28T11:38:34;1.90;93.00
31113;DHT22;17763;48.730;9.136;2023-02-28T11:46:35;1.70;92.90
31113;DHT22;17763;48.730;9.136;2023-02-28T12:09:34;2.10;93.50
31113;DHT22;17763;48.730;9.136;2023-02-28T12:12:23;2.20;93.30
31113;DHT22;17763;48.730;9.136;2023-02-28T12:18:17;2.40;92.70
31113;DHT22;17763;48.730;9.136;2023-02-28T12:21:08;2.50;92.40
31113;DHT22;17763;48.730;9.136;2023-02-28T12:26:36;2.60;91.90
31113;DHT22;17763;48.730;9.136;2023-02-28T12:29:16;2.70;91.50
31113;DHT22;17763;48.730;9.136;2023-02-28T12:34:48;2.80;91.20
31113;DHT22;17763;48.730;9.136;2023-02-28T12:37:16;2.80;90.50
31113;DHT22;17763;48.730;9.136;2023-02-28T12:39:48;2.80;90.50
31113;DHT22;17763;48.730;9.136;2023-02-28T12:42:28;2.80;90.60
31113;DHT22;17763;48.730;9.136;2023-02-28T12:44:59;2.90;90.60
31113;DHT22;17763;48.730;9.136;2023-02-28T12:47:26;2.90;89.40
31113;DHT22;17763;48.730;9.136;2023-02-28T12:50:05;2.90;89.90
31113;DHT22;17763;48.730;9.136;2023-02-28T12:55:12;2.90;89.50
31113;DHT22;17763;48.730;9.136;2023-02-28T12:57:48;3.00;90.10
31113;DHT22;17763;48.730;9.136;2023-02-28T13:00:18;3.00;90.00
31113;DHT22;17763;48.730;9.136;2023-02-28T13:10:53;3.10;88.10
31113;DHT22;17763;48.730;9.136;2023-02-28T13:13:25;3.20;88.60
31113;DHT22;17763;48.730;9.136;2023-02-28T13:20:57;3.30;86.20
31113;DHT22;17763;48.730;9.136;2023-02-28T13:26:06;3.30;87.00
31113;DHT22;17763;48.730;9.136;2023-02-28T13:31:20;3.40;86.30
31113;DHT22;17763;48.730;9.136;2023-02-28T13:38:47;3.60;85.80
31113;DHT22;17763;48.730;9.136;2023-02-28T13:57:41;4.20;85.10
31113;DHT22;17763;48.730;9.136;2023-02-28T14:00:41;4.30;84.40
31113;DHT22;17763;48.730;9.136;2023-02-28T14:05:44;4.40;82.00
31113;DHT22;17763;48.730;9.136;2023-02-28T14:08:19;4.50;81.70
31113;DHT22;17763;48.730;9.136;2023-02-28T14:10:51;4.50;81.70
31113;DHT22;17763;48.730;9.136;2023-02-28T14:15:59;4.60;81.40
31113;DHT22;17763;48.730;9.136;2023-02-28T14:18:34;4.70;79.90
31113;DHT22;17763;48.730;9.136;2023-02-28T14:21:36;4.70;79.80
31113;DHT22;17763;48.730;9.136;2023-02-28T14:24:10;4.70;79.20
31113;DHT22;17763;48.730;9.136;2023-02-28T14:32:37;4.70;77.80
31113;DHT22;17763;48.730;9.136;2023-02-28T14:35:16;4.70;78.40
31113;DHT22;17763;48.730;9.136;2023-02-28T14:37:44;4.80;78.90
31113;DHT22;17763;48.730;9.136;2023-02-28T14:40:29;4.90;78.90
31113;DHT22;17763;48.730;9.136;2023-02-28T14:43:05;5.00;76.60
31113;DHT22;17763;48.730;9.136;2023-02-28T14:45:35;5.00;76.30
31113;DHT22;17763;48.730;9.136;2023-02-28T14:48:05;5.10;76.90
31113;DHT22;17763;48.730;9.136;2023-02-28T14:50:36;5.30;77.10
31113;DHT22;17763;48.730;9.136;2023-02-28T14:53:02;5.40;76.60
31113;DHT22;17763;48.730;9.136;2023-02-28T14:55:34;5.50;76.20
31113;DHT22;17763;48.730;9.136;2023-02-28T14:58:05;5.60;75.50
31113;DHT22;17763;48.730;9.136;2023-02-28T15:00:36;5.50;73.50
31113;DHT22;17763;48.730;9.136;2023-02-28T15:03:51;5.40;73.40
31113;DHT22;17763;48.730;9.136;2023-02-28T15:06:16;5.40;74.00
31113;DHT22;17763;48.730;9.136;2023-02-28T15:08:44;5.30;74.50
31113;DHT22;17763;48.730;9.136;2023-02-28T15:11:18;5.30;74.70
31113;DHT22;17763;48.730;9.136;2023-02-28T15:13:54;5.40;75.10
31113;DHT22;17763;48.730;9.136;2023-02-28T15:16:30;5.40;74.50
31113;DHT22;17763;48.730;9.136;2023-02-28T15:19:00;5.40;74.00
31113;DHT22;17763;48.730;9.136;2023-02-28T15:21:37;5.50;74.30
31113;DHT22;17763;48.730;9.136;2023-02-28T15:26:44;5.50;73.70
31113;DHT22;17763;48.730;9.136;2023-02-28T15:29:17;5.50;74.00
31113;DHT22;17763;48.730;9.136;2023-02-28T15:31:48;5.60;73.60
31113;DHT22;17763;48.730;9.136;2023-02-28T15:34:20;5.50;73.30
31113;DHT22;17763;48.730;9.136;2023-02-28T15:36:47;5.60;73.20
31113;DHT22;17763;48.730;9.136;2023-02-28T15:39:28;5.60;73.20
31113;DHT22;17763;48.730;9.136;2023-02-28T15:42:18;5.50;72.90
31113;DHT22;17763;48.730;9.136;2023-02-28T15:44:43;5.60;73.00
31113;DHT22;17763;48.730;9.136;2023-02-28T15:47:27;5.60;73.10
31113;DHT22;17763;48.730;9.136;2023-02-28T15:49:58;5.60;72.90
31113;DHT22;17763;48.730;9.136;2023-02-28T15:52:43;5.60;72.40
31113;DHT22;17763;48.730;9.136;2023-02-28T15:57:45;5.60;72.50
31113;DHT22;17763;48.730;9.136;2023-02-28T16:00:14;5.60;72.30
31113;DHT22;17763;48.730;9.136;2023-02-28T16:02:42;5.60;72.10
31113;DHT22;17763;48.730;9.136;2023-02-28T16:07:43;5.50;72.00
31113;DHT22;17763;48.730;9.136;2023-02-28T16:10:11;5.50;71.80
31113;DHT22;17763;48.730;9.136;2023-02-28T16:12:40;5.40;71.90
31113;DHT22;17763;48.730;9.136;2023-02-28T16:15:14;5.40;72.10
31113;DHT22;17763;48.730;9.136;2023-02-28T16:17:42;5.40;72.00
31113;DHT22;17763;48.730;9.136;2023-02-28T16:20:25;5.40;72.30
31113;DHT22;17763;48.730;9.136;2023-02-28T16:22:52;5.40;72.20
31113;DHT22;17763;48.730;9.136;2023-02-28T16:25:23;5.30;72.20
31113;DHT22;17763;48.730;9.136;2023-02-28T16:27:52;5.20;72.10
31113;DHT22;17763;48.730;9.136;2023-02-28T16:30:25;5.20;72.40
31113;DHT22;17763;48.730;9.136;2023-02-28T16:32:52;5.10;72.70
31113;DHT22;17763;48.730;9.136;2023-02-28T16:35:19;5.10;72.90
31113;DHT22;17763;48.730;9.136;2023-02-28T16:37:45;5.00;73.00
31113;DHT22;17763;48.730;9.136;2023-02-28T16:40:33;5.00;73.30
31113;DHT22;17763;48.730;9.136;2023-02-28T16:43:05;4.90;73.00
31113;DHT22;17763;48.730;9.136;2023-02-28T16:45:35;4.90;73.10
31113;DHT22;17763;48.730;9.136;2023-02-28T16:48:00;4.90;73.10
31113;DHT22;17763;48.730;9.136;2023-02-28T16:50:28;4.70;73.10
31113;DHT22;17763;48.730;9.136;2023-02-28T16:52:55;4.60;73.50
31113;DHT22;17763;48.730;9.136;2023-02-28T16:55:23;4.60;73.70
31113;DHT22;17763;48.730;9.136;2023-02-28T16:57:57;4.50;73.80
31113;DHT22;17763;48.730;9.136;2023-02-28T17:00:24;4.50;73.90
31113;DHT22;17763;48.730;9.136;2023-02-28T17:02:50;4.50;74.10
31113;DHT22;17763;48.730;9.136;2023-02-28T17:05:16;4.40;73.90
31113;DHT22;17763;48.730;9.136;2023-02-28T17:07:43;4.40;74.10
31113;DHT22;17763;48.730;9.136;2023-02-28T17:10:17;4.30;74.10
31113;DHT22;17763;48.730;9.136;2023-02-28T17:12:43;4.30;74.30
31113;DHT22;17763;48.730;9.136;2023-02-28T17:15:13;4.20;74.30
31113;DHT22;17763;48.730;9.136;2023-02-28T17:17:40;4.20;74.50
31113;DHT22;17763;48.730;9.136;2023-02-28T17:20:07;4.20;74.50
31113;DHT22;17763;48.730;9.136;2023-02-28T17:22:33;4.20;74.50
31113;DHT22;17763;48.730;9.136;2023-02-28T17:24:58;4.10;74.60
31113;DHT22;17763;48.730;9.136;2023-02-28T17:27:24;4.10;74.80
31113;DHT22;17763;48.730;9.136;2023-02-28T17:29:50;4.00;74.90
31113;DHT22;17763;48.730;9.136;2023-02-28T17:32:17;4.00;75.10
31113;DHT22;17763;48.730;9.136;2023-02-28T17:34:43;3.90;75.20
31113;DHT22;17763;48.730;9.136;2023-02-28T17:37:09;3.90;75.40
31113;DHT22;17763;48.730;9.136;2023-02-28T17:39:35;3.90;75.50
31113;DHT22;17763;48.730;9.136;2023-02-28T17:42:01;3.80;76.10
31113;DHT22;17763;48.730;9.136;2023-02-28T17:44:29;3.80;75.60
31113;DHT22;17763;48.730;9.136;2023-02-28T17:46:55;3.80;75.70
31113;DHT22;17763;48.730;9.136;2023-02-28T17:49:22;3.80;75.70
31113;DHT22;17763;48.730;9.136;2023-02-28T17:51:48;3.80;75.80
31113;DHT22;17763;48.730;9.136;2023-02-28T17:54:14;3.80;75.90
31113;DHT22;17763;48.730;9.136;2023-02-28T17:56:40;3.70;75.90
31113;DHT22;17763;48.730;9.136;2023-02-28T17:59:06;3.70;76.00
31113;DHT22;17763;48.730;9.136;2023-02-28T18:01:33;3.70;76.00
31113;DHT22;17763;48.730;9.136;2023-02-28T18:03:59;3.70;76.20
31113;DHT22;17763;48.730;9.136;2023-02-28T18:06:28;3.60;76.20
31113;DHT22;17763;48.730;9.136;2023-02-28T18:08:56;3.70;76.30
31113;DHT22;17763;48.730;9.136;2023-02-28T18:11:23;3.60;76.30
31113;DHT22;17763;48.730;9.136;2023-02-28T18:13:51;3.60;76.30
31113;DHT22;17763;48.730;9.136;2023-02-28T18:16:18;3.50;76.30
31113;DHT22;17763;48.730;9.136;2023-02-28T18:18:44;3.50;76.30
31113;DHT22;17763;48.730;9.136;2023-02-28T18:21:11;3.50;76.40
31113;DHT22;17763;48.730;9.136;2023-02-28T18:23:38;3.50;76.60
31113;DHT22;17763;48.730;9.136;2023-02-28T18:26:13;3.50;76.60
31113;DHT22;17763;48.730;9.136;2023-02-28T18:28:39;3.40;76.80
31113;DHT22;17763;48.730;9.136;2023-02-28T18:31:07;3.40;77.10
31113;DHT22;17763;48.730;9.136;2023-02-28T18:33:34;3.30;77.60
31113;DHT22;17763;48.730;9.136;2023-02-28T18:35:59;3.30;77.10
31113;DHT22;17763;48.730;9.136;2023-02-28T18:38:25;3.20;77.10
31113;DHT22;17763;48.730;9.136;2023-02-28T18:40:57;3.20;77.20
31113;DHT22;17763;48.730;9.136;2023-02-28T18:43:24;3.30;77.30
31113;DHT22;17763;48.730;9.136;2023-02-28T18:45:50;3.40;77.40
31113;DHT22;17763;48.730;9.136;2023-02-28T18:48:16;3.20;77.40
31113;DHT22;17763;48.730;9.136;2023-02-28T18:50:44;3.20;77.40
31113;DHT22;17763;48.730;9.136;2023-02-28T18:53:10;3.30;78.90